createdAt,value
2023-02-02T00:00:46.012Z,98455.88
2023-02-02T00:03:50.933Z,98452.41
2023-02-02T00:06:53.571Z,98453.25
2023-02-02T00:09:55.419Z,98452.78
2023-02-02T00:12:58.169Z,98451.56
2023-02-02T00:16:37.373Z,98442.97
2023-02-02T00:19:39.305Z,98438.66
2023-02-02T00:22:41.235Z,98433.13
2023-02-02T00:25:43.654Z,98432.41
2023-02-02T00:28:45.741Z,98430.28
2023-02-02T00:31:48.361Z,98437.22
2023-02-02T00:34:50.334Z,98434.09
2023-02-02T00:37:52.242Z,98434.34
2023-02-02T00:40:54.150Z,98421.91
2023-02-02T00:44:14.533Z,98421.66
2023-02-02T00:47:18.025Z,98415.19
2023-02-02T00:50:21.775Z,98417.59
2023-02-02T00:53:23.923Z,98414.94
2023-02-02T00:56:26.084Z,98415.66
2023-02-02T00:59:28.181Z,98426.66
2023-02-02T01:02:30.188Z,98412.78
2023-02-02T01:05:33.921Z,98414.34
2023-02-02T01:08:36.017Z,98405.59
2023-02-02T01:11:37.907Z,98408.22
2023-02-02T01:14:39.847Z,98412.28
2023-02-02T01:17:41.733Z,98406.69
2023-02-02T01:20:43.669Z,98404.03
2023-02-02T01:23:45.569Z,98405.00
2023-02-02T01:26:47.576Z,98405.84
2023-02-02T01:29:49.488Z,98409.19
2023-02-02T01:32:51.605Z,98411.56
2023-02-02T01:35:56.125Z,98409.31
2023-02-02T01:38:58.349Z,98404.88
2023-02-02T01:42:00.312Z,98400.44
2023-02-02T01:45:02.120Z,98399.50
2023-02-02T01:48:04.168Z,98408.09
2023-02-02T01:51:09.872Z,98400.78
2023-02-02T01:54:35.423Z,98403.66
2023-02-02T01:57:42.192Z,98397.44
2023-02-02T02:00:46.933Z,98398.41
2023-02-02T02:03:49.011Z,98394.56
2023-02-02T02:06:53.733Z,98389.03
2023-02-02T02:09:55.886Z,98386.97
2023-02-02T02:12:58.185Z,98387.81
2023-02-02T02:16:19.746Z,98397.38
2023-02-02T02:20:05.661Z,98390.59
2023-02-02T02:23:53.089Z,98397.66
2023-02-02T02:27:24.605Z,98390.00
2023-02-02T02:31:01.590Z,98390.84
2023-02-02T02:34:07.958Z,98396.47
2023-02-02T02:37:30.568Z,98389.16
2023-02-02T02:40:41.633Z,98395.47
2023-02-02T02:43:52.998Z,98399.91
2023-02-02T02:46:57.309Z,98400.03
2023-02-02T02:49:59.663Z,98396.41
2023-02-02T02:53:09.735Z,98397.84
2023-02-02T02:56:25.033Z,98399.53
2023-02-02T02:59:53.337Z,98406.09
2023-02-02T03:03:16.545Z,98410.28
2023-02-02T03:06:28.220Z,98411.94
2023-02-02T03:09:37.200Z,98410.84
2023-02-02T03:12:47.530Z,98416.00
2023-02-02T03:15:49.589Z,98402.13
2023-02-02T03:18:51.504Z,98403.78
2023-02-02T03:21:53.425Z,98411.56
2023-02-02T03:24:57.003Z,98421.03
2023-02-02T03:27:59.074Z,98425.22
2023-02-02T03:31:02.278Z,98425.22
2023-02-02T03:34:04.217Z,98421.88
2023-02-02T03:37:06.082Z,98418.75
2023-02-02T03:40:08.570Z,98416.38
2023-02-02T03:43:10.979Z,98416.50
2023-02-02T03:46:12.918Z,98417.09
2023-02-02T03:49:14.912Z,98418.31
2023-02-02T03:52:16.820Z,98418.63
2023-02-02T03:55:18.692Z,98415.28
2023-02-02T03:58:22.408Z,98426.53
2023-02-02T04:01:29.399Z,98427.00
2023-02-02T04:04:31.398Z,98436.72
2023-02-02T04:07:33.341Z,98435.50
2023-02-02T04:10:35.217Z,98442.31
2023-02-02T04:13:37.222Z,98446.03
2023-02-02T04:16:39.136Z,98453.13
2023-02-02T04:19:41.129Z,98457.19
2023-02-02T04:22:42.945Z,98454.41
2023-02-02T04:25:51.641Z,98453.59
2023-02-02T04:28:54.075Z,98456.94
2023-02-02T04:31:56.243Z,98454.03
2023-02-02T04:34:58.228Z,98460.03
2023-02-02T04:38:00.129Z,98466.38
2023-02-02T04:41:07.920Z,98465.56
2023-02-02T04:44:18.030Z,98461.69
2023-02-02T04:47:19.918Z,98467.22
2023-02-02T04:50:21.862Z,98462.19
2023-02-02T04:53:24.811Z,98463.88
2023-02-02T04:56:26.575Z,98461.94
2023-02-02T04:59:30.101Z,98480.75
2023-02-02T05:02:32.018Z,98475.34
2023-02-02T05:05:33.980Z,98468.41
2023-02-02T05:08:36.794Z,98473.66
2023-02-02T05:11:41.250Z,98473.66
2023-02-02T05:14:43.200Z,98477.53
2023-02-02T05:17:45.129Z,98481.59
2023-02-02T05:20:47.085Z,98475.22
2023-02-02T05:23:49.463Z,98471.03
2023-02-02T05:26:52.989Z,98480.63
2023-02-02T05:29:54.939Z,98478.69
2023-02-02T05:32:56.761Z,98484.94
2023-02-02T05:35:58.645Z,98482.75
2023-02-02T05:39:00.582Z,98482.38
2023-02-02T08:55:16.127Z,98576.59
2023-02-02T08:58:18.023Z,98585.84
2023-02-02T09:01:25.544Z,98580.72
2023-02-02T09:04:27.527Z,98582.41
2023-02-02T09:07:29.402Z,98567.56
2023-02-02T09:10:32.262Z,98567.72
2023-02-02T09:13:35.019Z,98565.19
2023-02-02T09:16:37.100Z,98559.38
2023-02-02T09:19:39.118Z,98557.44
2023-02-02T09:22:41.089Z,98565.78
2023-02-02T09:25:43.050Z,98553.13
2023-02-02T09:28:54.349Z,98555.22
2023-02-02T09:31:56.442Z,98554.38
2023-02-02T09:34:58.420Z,98562.88
2023-02-02T09:38:00.356Z,98560.09
2023-02-02T09:41:14.629Z,98560.53
2023-02-02T09:44:46.113Z,98562.63
2023-02-02T09:47:58.589Z,98565.69
2023-02-02T09:51:06.995Z,98560.53
2023-02-02T09:54:19.786Z,98557.19
2023-02-02T09:57:31.230Z,98555.09
2023-02-02T10:00:39.853Z,98555.66
2023-02-02T10:04:01.366Z,98548.41
2023-02-02T10:07:14.312Z,98551.75
2023-02-02T10:10:21.604Z,98551.19
2023-02-02T10:13:33.633Z,98543.94
2023-02-02T10:16:37.958Z,98551.06
2023-02-02T10:19:42.533Z,98539.91
2023-02-02T10:22:46.586Z,98545.47
2023-02-02T10:26:12.011Z,98549.09
2023-02-02T10:29:23.674Z,98541.28
2023-02-02T10:32:29.072Z,98549.66
2023-02-02T10:35:40.465Z,98551.31
2023-02-02T10:38:54.562Z,98558.72
2023-02-02T10:42:25.519Z,98550.78
2023-02-02T10:45:27.595Z,98548.41
2023-02-02T10:48:35.905Z,98543.38
2023-02-02T10:51:38.565Z,98558.31
2023-02-02T10:54:55.765Z,98549.38
2023-02-02T10:58:03.306Z,98548.69
2023-02-02T11:01:11.606Z,98547.00
2023-02-02T11:04:32.572Z,98544.34
2023-02-02T11:07:36.220Z,98545.75
2023-02-02T11:10:38.235Z,98543.78
2023-02-02T11:13:55.424Z,98551.59
2023-02-02T11:17:24.955Z,98554.22
2023-02-02T11:20:39.164Z,98556.31
2023-02-02T11:23:41.174Z,98555.34
2023-02-02T11:26:55.956Z,98560.09
2023-02-02T11:30:00.037Z,98558.97
2023-02-02T11:33:30.147Z,98553.69
2023-02-02T11:36:32.247Z,98549.91
2023-02-02T11:39:34.279Z,98551.25
2023-02-02T11:42:36.263Z,98558.38
2023-02-02T11:45:41.844Z,98554.88
2023-02-02T11:49:00.968Z,98556.56
2023-02-02T11:52:06.816Z,98565.78
2023-02-02T11:55:17.613Z,98567.03
2023-02-02T11:58:25.148Z,98562.13
2023-02-02T12:01:35.785Z,98572.88
2023-02-02T12:04:37.769Z,98573.16
2023-02-02T12:07:40.759Z,98568.84
2023-02-02T12:10:46.858Z,98580.84
2023-02-02T12:14:00.959Z,98577.63
2023-02-02T12:17:12.102Z,98573.16
2023-02-02T12:20:46.750Z,98581.28
2023-02-02T12:24:18.599Z,98579.88
2023-02-02T12:27:42.219Z,98585.75
2023-02-02T12:31:07.652Z,98584.22
2023-02-02T12:34:30.716Z,98584.50
2023-02-02T12:37:52.069Z,98583.94
2023-02-02T12:41:10.080Z,98591.75
2023-02-02T12:44:50.945Z,98598.59
2023-02-02T12:48:31.082Z,98596.06
2023-02-02T12:52:03.339Z,98594.25
2023-02-02T12:55:47.015Z,98601.09
2023-02-02T12:59:26.053Z,98600.81
2023-02-02T13:03:02.414Z,98599.56
2023-02-02T13:06:30.026Z,98598.72
2023-02-02T13:09:57.664Z,98606.69
2023-02-02T13:13:23.814Z,98611.28
2023-02-02T13:16:27.183Z,98603.47
2023-02-02T13:19:36.051Z,98606.41
2023-02-02T13:22:42.599Z,98617.13
2023-02-02T13:25:49.201Z,98622.56
2023-02-02T13:28:58.199Z,98619.91
2023-02-02T13:32:06.563Z,98620.63
2023-02-02T13:35:49.278Z,98623.28
2023-02-02T13:38:56.182Z,98624.09
2023-02-02T13:41:58.675Z,98620.63
2023-02-02T13:45:16.627Z,98619.91
2023-02-02T13:48:30.226Z,98619.09
2023-02-02T13:51:58.486Z,98628.00
2023-02-02T13:55:19.237Z,98630.38
2023-02-02T13:58:59.800Z,98629.41
2023-02-02T14:02:02.409Z,98636.09
2023-02-02T14:05:06.516Z,98643.19
2023-02-02T14:08:21.381Z,98643.19
2023-02-02T14:11:31.055Z,98656.72
2023-02-02T14:14:36.931Z,98640.13
2023-02-02T14:17:38.755Z,98656.16
2023-02-02T14:20:44.619Z,98652.53
2023-02-02T14:23:51.174Z,98651.69
2023-02-02T14:26:57.688Z,98661.44
2023-02-02T14:30:00.550Z,98660.75
2023-02-02T14:33:20.838Z,98656.28
2023-02-02T14:36:22.759Z,98661.16
2023-02-02T14:39:30.240Z,98662.81
2023-02-02T14:43:22.364Z,98673.41
2023-02-02T14:46:33.998Z,98668.38
2023-02-02T14:49:35.908Z,98670.91
2023-02-02T14:52:37.750Z,98671.19
2023-02-02T14:55:57.900Z,98670.63
2023-02-02T14:59:02.033Z,98676.75
2023-02-02T15:02:22.131Z,98675.34
2023-02-02T15:05:30.712Z,98684.13
2023-02-02T15:08:32.603Z,98688.84
2023-02-02T15:12:03.104Z,98688.00
2023-02-02T15:15:32.997Z,98697.06
2023-02-02T15:18:44.479Z,98694.53
2023-02-02T15:21:49.490Z,98704.28
2023-02-02T15:24:53.090Z,98704.56
2023-02-02T15:28:19.222Z,98712.63
2023-02-02T15:31:44.002Z,98713.47
2023-02-02T15:34:50.041Z,98712.78
2023-02-02T15:38:00.427Z,98721.81
2023-02-02T15:41:15.635Z,98725.44
2023-02-02T15:44:26.600Z,98722.66
2023-02-02T15:47:37.338Z,98720.97
2023-02-02T15:50:46.352Z,98718.72
2023-02-02T15:53:51.705Z,98724.03
2023-02-02T15:56:55.518Z,98722.06
2023-02-02T15:59:58.576Z,98733.50
2023-02-02T16:03:18.190Z,98737.81
2023-02-02T16:06:21.279Z,98742.28
2023-02-02T16:09:26.797Z,98742.16
2023-02-02T16:12:28.859Z,98750.22
2023-02-02T16:15:34.107Z,98750.22
2023-02-02T16:18:36.425Z,98758.88
2023-02-02T16:21:46.066Z,98763.44
2023-02-02T16:24:51.595Z,98764.69
2023-02-02T16:27:54.023Z,98768.03
2023-02-02T16:31:00.350Z,98766.50
2023-02-02T16:34:02.770Z,98763.00
2023-02-02T16:37:14.153Z,98772.50
2023-02-02T16:40:29.741Z,98772.63
2023-02-02T16:43:31.754Z,98771.91
2023-02-02T16:47:00.255Z,98790.19
2023-02-02T16:50:28.535Z,98789.72
2023-02-02T16:53:30.673Z,98782.50
2023-02-02T16:56:39.385Z,98791.28
2023-02-02T16:59:41.253Z,98784.56
2023-02-02T17:02:48.322Z,98787.78
2023-02-02T17:05:54.112Z,98783.59
2023-02-02T17:08:55.977Z,98780.97
2023-02-02T17:12:02.112Z,98784.31
2023-02-02T17:15:28.543Z,98794.06
2023-02-02T17:18:30.571Z,98799.59
2023-02-02T17:21:33.982Z,98796.69
2023-02-02T17:24:36.064Z,98794.19
2023-02-02T17:27:37.872Z,98800.72
2023-02-02T17:30:41.795Z,98795.53
2023-02-02T17:33:43.857Z,98796.25
2023-02-02T17:36:45.685Z,98793.88
2023-02-02T17:39:50.475Z,98797.22
2023-02-02T17:42:53.580Z,98795.09
2023-02-02T17:45:55.401Z,98797.50
2023-02-02T17:48:57.962Z,98803.03
2023-02-02T17:51:59.823Z,98815.56
2023-02-02T17:55:01.685Z,98809.56
2023-02-02T17:58:03.971Z,98807.03
2023-02-02T18:01:06.968Z,98806.06
2023-02-02T18:04:10.932Z,98819.69
2023-02-02T18:07:12.772Z,98815.81
2023-02-02T18:10:16.502Z,98809.94
2023-02-02T18:13:20.287Z,98817.16
2023-02-02T18:16:22.542Z,98817.31
2023-02-02T18:19:24.880Z,98817.44
2023-02-02T18:22:27.101Z,98826.34
2023-02-02T18:25:29.234Z,98834.13
2023-02-02T18:28:31.098Z,98831.75
2023-02-02T18:31:33.017Z,98835.94
2023-02-02T18:34:36.163Z,98834.00
2023-02-02T18:37:38.937Z,98825.22
2023-02-02T18:40:40.891Z,98833.31
2023-02-02T18:43:42.857Z,98831.22
2023-02-02T18:46:44.895Z,98830.53
2023-02-02T18:49:46.780Z,98822.59
2023-02-02T18:52:48.519Z,98814.66
2023-02-02T18:55:51.637Z,98814.91
2023-02-02T18:58:53.791Z,98818.19
2023-02-02T19:01:55.970Z,98822.66
2023-02-02T19:05:16.498Z,98822.91
2023-02-02T19:08:18.322Z,98828.06
2023-02-02T19:11:26.761Z,98835.16
2023-02-02T19:14:33.276Z,98834.31
2023-02-02T19:17:35.114Z,98833.88
2023-02-02T19:20:38.037Z,98837.59
2023-02-02T19:23:41.956Z,98841.09
2023-02-02T19:26:49.454Z,98833.53
2023-02-02T19:29:55.812Z,98838.81
2023-02-02T19:32:57.690Z,98836.88
2023-02-02T19:35:59.552Z,98841.94
2023-02-02T19:39:11.427Z,98835.66
2023-02-02T19:42:13.295Z,98838.44
2023-02-02T19:45:24.470Z,98836.25
2023-02-02T19:48:31.222Z,98840.00
2023-02-02T19:51:33.095Z,98845.16
2023-02-02T19:54:43.676Z,98843.22
2023-02-02T19:57:45.718Z,98844.31
2023-02-02T20:00:52.477Z,98837.22
2023-02-02T20:03:55.260Z,98839.03
2023-02-02T20:06:59.760Z,98844.31
2023-02-02T20:10:19.718Z,98851.16
2023-02-02T20:13:33.132Z,98842.63
2023-02-02T20:16:41.694Z,98842.63
2023-02-02T20:19:46.225Z,98839.66
2023-02-02T20:22:48.060Z,98844.56
2023-02-02T20:25:49.970Z,98837.72
2023-02-02T20:28:54.926Z,98846.50
2023-02-02T20:31:59.388Z,98842.44
2023-02-02T20:35:14.016Z,98837.16
2023-02-02T20:38:23.409Z,98835.72
2023-02-02T20:41:26.313Z,98847.72
2023-02-02T20:44:30.090Z,98853.72
2023-02-02T20:47:31.993Z,98843.97
2023-02-02T20:50:33.795Z,98848.31
2023-02-02T20:53:35.788Z,98846.38
2023-02-02T20:56:37.879Z,98856.13
2023-02-02T20:59:39.766Z,98859.59
2023-02-02T21:02:41.673Z,98856.13
2023-02-02T21:05:43.606Z,98852.88
2023-02-02T21:08:47.672Z,98861.66
2023-02-02T21:11:49.574Z,98854.44
2023-02-02T21:14:54.655Z,98845.06
2023-02-02T21:17:56.477Z,98851.31
2023-02-02T21:20:58.338Z,98842.47
2023-02-02T21:24:00.855Z,98852.81
2023-02-02T21:27:04.596Z,98852.94
2023-02-02T21:30:08.424Z,98855.31
2023-02-02T21:33:10.280Z,98850.16
2023-02-02T21:36:24.829Z,98854.22
2023-02-02T21:39:33.337Z,98864.69
2023-02-02T21:42:35.679Z,98860.47
2023-02-02T21:45:39.468Z,98864.69
2023-02-02T21:48:42.065Z,98864.56
2023-02-02T21:51:43.925Z,98862.88
2023-02-02T21:54:47.508Z,98869.38
2023-02-02T21:57:49.383Z,98872.72
2023-02-02T22:00:57.498Z,98867.31
2023-02-02T22:03:59.467Z,98862.16
2023-02-02T22:07:12.672Z,98865.25
2023-02-02T22:10:20.538Z,98861.91
2023-02-02T22:13:25.025Z,98868.75
2023-02-02T22:16:26.923Z,98856.63
2023-02-02T22:19:33.194Z,98859.97
2023-02-02T22:22:36.908Z,98859.25
2023-02-02T22:25:40.831Z,98865.50
2023-02-02T22:28:42.629Z,98872.03
2023-02-02T22:31:44.533Z,98874.53
2023-02-02T22:34:46.387Z,98870.09
2023-02-02T22:37:48.201Z,98871.78
2023-02-02T22:40:51.838Z,98877.66
2023-02-02T22:43:53.695Z,98873.91
2023-02-02T22:46:55.522Z,98872.09
2023-02-02T22:49:57.386Z,98875.59
2023-02-02T22:52:59.889Z,98878.22
2023-02-02T22:56:01.774Z,98879.78
2023-02-02T22:59:03.640Z,98870.31
2023-02-02T23:02:05.510Z,98874.63
2023-02-02T23:05:10.126Z,98871.00
2023-02-02T23:08:11.998Z,98871.25
2023-02-02T23:11:13.866Z,98868.75
2023-02-02T23:14:15.765Z,98866.81
2023-02-02T23:17:17.614Z,98871.97
2023-02-02T23:20:19.613Z,98865.00
2023-02-02T23:23:23.049Z,98871.38
2023-02-02T23:26:25.307Z,98878.81
2023-02-02T23:29:27.444Z,98873.78
2023-02-02T23:32:29.254Z,98872.94
2023-02-02T23:35:31.067Z,98865.00
2023-02-02T23:38:32.946Z,98870.44
2023-02-02T23:41:34.717Z,98874.63
2023-02-02T23:44:36.618Z,98873.78
2023-02-02T23:47:38.559Z,98879.31
2023-02-02T23:50:40.938Z,98878.47
2023-02-02T23:53:43.310Z,98883.53
2023-02-02T23:56:45.302Z,98884.50
2023-02-02T23:59:47.197Z,98893.25
